Time;durP1;ratioP1;P1;durP2;ratioP2;P2;SDS_P1;SDS_P2;PMS_P1;PMS_P2;Temp;Humidity;BMP_temperature;BMP_pressure;BME280_temperature;BME280_humidity;BME280_pressure;Samples;Min_cycle;Max_cycle;Signal;HPM_P1;HPM_P2
2022/05/02 00:02:18;;;;;;;15.80;10.00;;;;;;;8.33;72.07;101926.84;4772028;30;20056;-66
2022/05/02 00:04:43;;;;;;;15.98;10.70;;;;;;;8.28;72.98;101933.78;4770147;30;20126;-66
2022/05/02 00:07:09;;;;;;;17.48;10.80;;;;;;;8.22;73.04;101937.22;4769824;30;20541;-66
2022/05/02 00:09:34;;;;;;;16.25;11.02;;;;;;;8.19;74.00;101932.19;4778723;30;20039;-66
2022/05/02 00:11:59;;;;;;;15.35;10.80;;;;;;;8.15;73.93;101923.63;4788147;30;20509;-66
2022/05/02 00:14:25;;;;;;;15.05;11.20;;;;;;;8.20;74.05;101928.47;4787574;30;20074;-66
2022/05/02 00:16:50;;;;;;;15.48;10.70;;;;;;;8.12;73.80;101926.69;4787068;30;20096;-66
2022/05/02 00:19:15;;;;;;;14.38;10.43;;;;;;;8.10;74.19;101926.03;4787396;30;20047;-66
2022/05/02 00:21:41;;;;;;;16.48;10.90;;;;;;;8.09;74.38;101924.34;4787747;30;20114;-66
2022/05/02 00:24:07;;;;;;;15.10;10.45;;;;;;;8.04;73.55;101919.50;4788007;30;20482;-67
2022/05/02 00:26:32;;;;;;;15.75;10.65;;;;;;;7.97;73.78;101922.09;4787702;30;20599;-66
2022/05/02 00:28:57;;;;;;;15.48;11.65;;;;;;;7.94;74.22;101910.81;4787612;30;20088;-66
2022/05/02 00:31:23;;;;;;;14.02;11.25;;;;;;;7.91;74.67;101903.97;4787628;30;20055;-66
2022/05/02 00:33:48;;;;;;;17.35;12.35;;;;;;;7.92;74.60;101913.72;4787924;29;20039;-66
2022/05/02 00:36:15;;;;;;;17.38;12.00;;;;;;;7.91;74.06;101912.06;4787446;30;20039;-66
2022/05/02 00:38:40;;;;;;;16.27;11.73;;;;;;;7.85;74.44;101914.63;4787556;30;20066;-66
2022/05/02 00:41:06;;;;;;;17.63;12.07;;;;;;;7.86;74.26;101914.44;4771235;30;20470;-66
2022/05/02 00:43:31;;;;;;;20.58;11.95;;;;;;;7.85;74.46;101902.00;4787433;30;20042;-66
2022/05/02 00:45:56;;;;;;;15.82;12.02;;;;;;;7.80;74.44;101897.16;4787437;30;20031;-66
2022/05/02 00:48:21;;;;;;;17.70;12.30;;;;;;;7.82;75.39;101905.06;4787417;30;20092;-66
2022/05/02 00:50:47;;;;;;;20.42;12.35;;;;;;;7.76;74.71;101903.06;4787004;30;20039;-66
2022/05/02 00:53:22;;;;;;;19.15;13.05;;;;;;;7.73;74.35;101904.28;4787402;30;20472;-66
2022/05/02 00:55:48;;;;;;;19.63;12.77;;;;;;;7.65;74.87;101895.41;4787544;30;20058;-66
2022/05/02 00:58:14;;;;;;;18.98;13.27;;;;;;;7.60;74.55;101896.78;4787327;30;20077;-66
2022/05/02 01:00:40;;;;;;;20.35;12.82;;;;;;;7.57;74.13;101899.84;4783461;29;20854;-66
2022/05/02 01:03:09;;;;;;;19.45;12.60;;;;;;;7.56;74.85;101897.31;4769274;30;20118;-66
2022/05/02 01:08:27;;;;;;;16.17;12.43;;;;;;;7.55;75.04;101901.03;4769469;30;20058;-66
2022/05/02 01:10:55;;;;;;;21.55;12.82;;;;;;;7.50;75.08;101898.03;4786246;30;20027;-66
2022/05/02 01:13:37;;;;;;;29.30;12.48;;;;;;;7.51;74.26;101892.47;4787058;30;20108;-66
2022/05/02 01:16:13;;;;;;;19.38;12.32;;;;;;;7.48;75.11;101895.53;4787138;30;20059;-66
2022/05/02 01:18:39;;;;;;;18.17;12.75;;;;;;;7.46;74.58;101892.19;4787188;30;20031;-66
2022/05/02 01:21:29;;;;;;;18.65;12.35;;;;;;;7.47;74.91;101893.84;4787331;30;20093;-66
2022/05/02 01:23:58;;;;;;;24.35;13.32;;;;;;;7.35;74.88;101892.56;4786852;30;20039;-66
2022/05/02 01:26:23;;;;;;;25.38;13.35;;;;;;;7.33;74.98;101889.22;4787255;30;20046;-66
2022/05/02 01:28:54;;;;;;;19.23;13.05;;;;;;;7.33;75.18;101889.22;4786934;30;20383;-66
2022/05/02 01:31:20;;;;;;;17.45;12.95;;;;;;;7.25;74.61;101890.13;4787311;30;20586;-66
2022/05/02 01:33:47;;;;;;;22.70;13.93;;;;;;;7.21;75.42;101889.63;4787228;30;20043;-66
2022/05/02 01:36:13;;;;;;;19.88;13.70;;;;;;;7.25;75.31;101890.94;4787008;30;20027;-66
2022/05/02 01:38:38;;;;;;;24.40;13.93;;;;;;;7.22;76.06;101885.94;4787154;30;20041;-66
2022/05/02 01:41:05;;;;;;;19.30;13.88;;;;;;;7.17;75.53;101887.47;4785542;30;20083;-66
2022/05/02 01:43:33;;;;;;;16.70;13.00;;;;;;;7.15;75.07;101882.25;4786900;30;20046;-66
2022/05/02 01:45:59;;;;;;;17.60;12.98;;;;;;;7.16;75.36;101889.31;4787123;29;20035;-66
2022/05/02 01:48:25;;;;;;;18.25;12.60;;;;;;;7.10;75.54;101876.56;4790317;30;20430;-66
2022/05/02 01:50:51;;;;;;;23.02;12.65;;;;;;;7.15;75.07;101890.34;4773760;30;20039;-66
2022/05/02 01:53:16;;;;;;;18.38;13.05;;;;;;;7.09;75.61;101882.97;4790296;30;20031;-66
2022/05/02 01:55:41;;;;;;;18.23;12.93;;;;;;;7.00;74.97;101889.41;4790420;30;20484;-66
2022/05/02 01:58:07;;;;;;;24.05;13.77;;;;;;;6.97;75.71;101879.00;4790441;30;20039;-66
2022/05/02 02:00:32;;;;;;;16.58;13.07;;;;;;;6.94;75.93;101876.66;4787922;30;20399;-66
2022/05/02 02:02:57;;;;;;;19.55;13.02;;;;;;;6.87;76.16;101871.97;4789345;30;20051;-67
2022/05/02 02:08:07;;;;;;;18.08;13.63;;;;;;;6.87;75.83;101873.81;4790041;30;20051;-66
2022/05/02 02:10:32;;;;;;;21.40;14.30;;;;;;;6.81;76.07;101874.50;4789555;30;20036;-66
2022/05/02 02:12:57;;;;;;;17.40;13.35;;;;;;;6.79;75.79;101881.94;4790453;30;20446;-66
2022/05/02 02:15:23;;;;;;;18.08;13.48;;;;;;;6.68;76.44;101875.09;4789970;29;20047;-66
2022/05/02 02:17:48;;;;;;;19.60;13.43;;;;;;;6.67;76.85;101866.19;4790209;30;20038;-66
2022/05/02 02:20:13;;;;;;;21.45;13.75;;;;;;;6.67;76.89;101871.56;4789436;30;20443;-66
2022/05/02 02:22:39;;;;;;;19.30;14.02;;;;;;;6.71;76.28;101872.06;4789998;30;20110;-66
2022/05/02 02:25:06;;;;;;;18.55;13.45;;;;;;;6.64;76.32;101881.81;4789709;30;20042;-67
2022/05/02 02:27:32;;;;;;;18.10;13.43;;;;;;;6.65;76.23;101875.44;4789875;30;20566;-66
2022/05/02 02:29:58;;;;;;;20.73;13.45;;;;;;;6.66;75.95;101874.44;4772981;30;20067;-66
2022/05/02 02:32:23;;;;;;;20.45;13.98;;;;;;;6.61;76.57;101874.94;4789902;30;20123;-66
2022/05/02 02:34:49;;;;;;;26.83;14.82;;;;;;;6.54;76.20;101872.09;4789782;30;20067;-67
2022/05/02 02:37:15;;;;;;;19.65;13.77;;;;;;;6.49;76.96;101869.09;4789297;30;20035;-67
2022/05/02 02:39:41;;;;;;;20.95;14.63;;;;;;;6.49;77.06;101869.09;4789754;30;20468;-67
2022/05/02 02:42:07;;;;;;;20.50;15.00;;;;;;;6.46;77.12;101869.47;4789689;30;20062;-66
2022/05/02 02:44:32;;;;;;;18.98;14.15;;;;;;;6.44;77.12;101863.41;4789094;30;20035;-66
2022/05/02 02:46:57;;;;;;;24.45;14.70;;;;;;;6.46;76.86;101860.53;4789374;30;20043;-66
2022/05/02 02:49:23;;;;;;;20.95;15.25;;;;;;;6.42;76.83;101857.34;4788872;30;20058;-66
2022/05/02 02:51:48;;;;;;;23.08;14.95;;;;;;;6.39;77.09;101863.09;4773370;30;20039;-66
2022/05/02 02:54:13;;;;;;;27.63;16.00;;;;;;;6.40;77.17;101856.66;4789550;30;20383;-66
2022/05/02 02:56:38;;;;;;;21.10;16.25;;;;;;;6.45;77.65;101857.00;4788900;30;20039;-66
2022/05/02 02:59:04;;;;;;;27.05;16.23;;;;;;;6.37;77.26;101855.19;4789099;29;20035;-66
2022/05/02 03:01:30;;;;;;;22.88;15.30;;;;;;;6.32;76.69;101854.03;4779234;30;20052;-66
2022/05/02 03:03:55;;;;;;;25.10;15.40;;;;;;;6.25;77.01;101850.34;4771707;30;20032;-66
2022/05/02 03:06:21;;;;;;;25.05;15.52;;;;;;;6.15;77.22;101853.22;4770996;30;20050;-66
2022/05/02 03:08:47;;;;;;;24.10;16.02;;;;;;;6.12;77.24;101849.03;4787797;30;20484;-66
2022/05/02 03:11:12;;;;;;;21.83;14.30;;;;;;;6.09;77.60;101845.84;4789171;30;20528;-66
2022/05/02 03:13:38;;;;;;;22.67;15.25;;;;;;;6.06;78.05;101846.19;4788558;30;20055;-66
2022/05/02 03:16:04;;;;;;;23.25;14.77;;;;;;;6.07;77.62;101848.72;4788707;29;20086;-66
2022/05/02 03:18:31;;;;;;;24.15;15.25;;;;;;;6.01;77.53;101847.53;4789128;30;20587;-66
2022/05/02 03:20:56;;;;;;;23.00;15.20;;;;;;;6.02;77.36;101846.53;4788988;30;20400;-66
2022/05/02 03:23:23;;;;;;;28.08;15.10;;;;;;;5.98;77.66;101844.38;4788818;30;20124;-66
2022/05/02 03:25:48;;;;;;;24.13;14.57;;;;;;;5.91;77.60;101843.31;4789057;30;20423;-66
2022/05/02 03:28:14;;;;;;;22.00;14.38;;;;;;;5.90;77.37;101845.16;4788957;30;20035;-66
2022/05/02 03:30:39;;;;;;;23.70;14.50;;;;;;;5.92;77.61;101836.91;4788421;30;20035;-66
2022/05/02 03:33:04;;;;;;;21.45;14.68;;;;;;;5.89;78.09;101842.63;4787580;30;20036;-66
2022/05/02 03:35:30;;;;;;;22.73;14.65;;;;;;;5.83;77.87;101842.31;4788014;30;20039;-66
2022/05/02 03:37:55;;;;;;;23.23;14.98;;;;;;;5.83;78.43;101842.31;4788737;30;20123;-66
2022/05/02 03:40:21;;;;;;;23.40;15.30;;;;;;;5.82;78.20;101845.16;4788573;30;20050;-66
2022/05/02 03:42:46;;;;;;;22.23;15.98;;;;;;;5.78;78.79;101839.31;4788489;30;20031;-66
2022/05/02 03:45:12;;;;;;;20.95;15.00;;;;;;;5.76;78.39;101835.09;4788437;30;20039;-66
2022/05/02 03:47:37;;;;;;;17.77;14.30;;;;;;;5.80;78.10;101837.28;4787693;30;20050;-66
2022/05/02 03:50:03;;;;;;;19.23;14.25;;;;;;;5.76;78.64;101841.31;4788465;30;20038;-66
2022/05/02 03:52:28;;;;;;;21.42;14.23;;;;;;;5.77;78.23;101836.78;4787792;30;20086;-66
2022/05/02 03:54:54;;;;;;;20.48;13.95;;;;;;;5.75;78.15;101838.78;4788276;30;20031;-66
2022/05/02 03:57:19;;;;;;;19.27;14.07;;;;;;;5.73;78.29;101833.59;4788237;30;20035;-66
2022/05/02 03:59:46;;;;;;;21.58;14.40;;;;;;;5.78;78.24;101833.94;4787993;30;20039;-66
2022/05/02 04:02:12;;;;;;;18.85;14.68;;;;;;;5.69;78.21;101834.91;4768733;30;20468;-66
2022/05/02 04:04:37;;;;;;;22.08;14.25;;;;;;;5.68;78.76;101846.69;4788043;30;20118;-66
2022/05/02 04:07:03;;;;;;;18.33;13.82;;;;;;;5.63;78.67;101844.50;4788211;30;20126;-66
2022/05/02 04:09:28;;;;;;;19.77;14.10;;;;;;;5.57;78.53;101839.81;4786132;29;20035;-66
2022/05/02 04:11:53;;;;;;;20.70;14.10;;;;;;;5.56;78.39;101845.34;4787936;30;20042;-66
2022/05/02 04:14:18;;;;;;;21.38;13.10;;;;;;;5.51;78.44;101845.84;4787788;30;20050;-66
2022/05/02 04:16:44;;;;;;;25.88;14.98;;;;;;;5.46;78.67;101851.69;4788065;30;20115;-66
2022/05/02 04:19:09;;;;;;;20.27;14.45;;;;;;;5.58;79.44;101844.16;4787807;30;20570;-66
2022/05/02 04:21:34;;;;;;;20.73;13.88;;;;;;;5.60;78.76;101841.31;4787562;30;20035;-66
2022/05/02 04:24:00;;;;;;;23.05;14.05;;;;;;;5.63;78.84;101836.47;4787576;30;20064;-66
2022/05/02 04:26:25;;;;;;;20.15;14.80;;;;;;;5.59;79.09;101845.03;4787815;30;20395;-66
2022/05/02 04:28:50;;;;;;;20.02;15.35;;;;;;;5.58;78.65;101844.16;4787941;30;20052;-66
2022/05/02 04:31:16;;;;;;;22.42;15.13;;;;;;;5.57;78.96;101847.88;4787824;30;20063;-66
2022/05/02 04:33:41;;;;;;;22.25;16.13;;;;;;;5.56;79.22;101845.34;4783119;30;20040;-66
2022/05/02 04:36:07;;;;;;;23.20;16.48;;;;;;;5.57;79.56;101837.13;4769910;30;20089;-66
2022/05/02 04:38:33;;;;;;;21.10;15.75;;;;;;;5.56;79.22;101845.34;4769424;30;20063;-66
2022/05/02 04:40:58;;;;;;;23.08;15.75;;;;;;;5.60;79.32;101836.78;4769876;30;20451;-66
2022/05/02 04:43:24;;;;;;;19.52;16.15;;;;;;;5.59;80.01;101836.97;4782330;30;20114;-66
2022/05/02 04:45:50;;;;;;;23.58;16.60;;;;;;;5.58;79.46;101846.03;4787814;30;20418;-65
2022/05/02 04:48:15;;;;;;;25.88;15.85;;;;;;;5.49;79.50;101839.78;4787816;30;20046;-66
2022/05/02 04:50:41;;;;;;;26.05;16.48;;;;;;;5.47;79.62;101845.34;4787641;30;20200;-66
2022/05/02 04:53:06;;;;;;;21.55;16.13;;;;;;;5.49;79.99;101847.84;4787097;30;20092;-66
2022/05/02 04:55:31;;;;;;;30.48;17.60;;;;;;;5.47;79.97;101848.03;4787100;30;20528;-66
2022/05/02 04:57:56;;;;;;;25.65;17.38;;;;;;;5.56;79.88;101853.41;4787741;30;20040;-66
2022/05/02 05:00:22;;;;;;;24.63;16.77;;;;;;;5.56;80.14;101840.81;4786847;30;20035;-66
2022/05/02 05:02:48;;;;;;;24.38;17.73;;;;;;;5.65;80.42;101839.81;4784560;29;20051;-66
2022/05/02 05:05:13;;;;;;;27.38;17.63;;;;;;;5.75;79.54;101850.41;4787356;30;20042;-66
2022/05/02 05:07:38;;;;;;;29.23;17.73;;;;;;;5.81;80.17;101849.72;4786981;30;20564;-66
2022/05/02 05:10:06;;;;;;;26.73;16.80;;;;;;;5.83;80.45;101855.75;4787378;30;20122;-66
2022/05/02 05:13:03;;;;;;;30.05;17.02;;;;;;;5.97;79.98;101848.06;4786999;30;20114;-66
2022/05/02 05:19:10;;;;;;;36.90;18.13;;;;;;;6.11;79.81;101850.03;4787200;30;20139;-66
2022/05/02 05:21:58;;;;;;;45.40;18.92;;;;;;;6.19;79.60;101851.88;4789344;29;20438;-66
2022/05/02 05:24:44;;;;;;;36.05;19.35;;;;;;;6.24;79.79;101851.38;4772919;30;20042;-65
2022/05/02 05:27:31;;;;;;;39.75;20.17;;;;;;;6.33;79.84;101845.78;4773121;30;20048;-66
2022/05/02 05:30:06;;;;;;;39.60;19.30;;;;;;;6.40;79.70;101848.59;4772835;30;20392;-66
2022/05/02 05:32:53;;;;;;;38.17;19.15;;;;;;;6.55;79.95;101844.22;4777953;30;20511;-66
2022/05/02 05:35:26;;;;;;;25.73;20.27;;;;;;;6.62;79.80;101848.88;4789585;30;20035;-66
2022/05/02 05:38:06;;;;;;;31.02;21.30;;;;;;;6.67;79.98;101844.66;4790546;30;20070;-66
2022/05/02 05:40:39;;;;;;;30.55;20.85;;;;;;;6.71;79.53;101845.16;4790524;30;20038;-66
2022/05/02 05:43:19;;;;;;;34.53;21.95;;;;;;;6.76;79.90;101842.75;4790479;30;20039;-66
2022/05/02 05:46:07;;;;;;;28.73;21.83;;;;;;;6.87;79.69;101846.91;4790469;30;20043;-66
2022/05/02 05:48:48;;;;;;;31.15;20.85;;;;;;;6.97;79.87;101846.72;4790422;30;20034;-66
2022/05/02 05:51:34;;;;;;;32.78;21.20;;;;;;;7.10;79.52;101852.34;4790601;30;20043;-66
2022/05/02 05:54:18;;;;;;;40.63;22.08;;;;;;;7.20;79.63;101855.66;4774125;30;20039;-66
2022/05/02 05:57:04;;;;;;;34.75;21.95;;;;;;;7.30;78.90;101850.03;4790255;30;20074;-66
2022/05/02 05:59:48;;;;;;;31.27;21.80;;;;;;;7.42;78.47;101851.28;4790400;30;20035;-66
2022/05/02 06:02:22;;;;;;;29.60;22.08;;;;;;;7.58;78.31;101858.41;4787147;29;20380;-66
2022/05/02 06:04:49;;;;;;;30.73;22.05;;;;;;;7.68;79.39;101858.16;4790151;30;20374;-66
2022/05/02 06:07:17;;;;;;;27.25;21.70;;;;;;;7.82;79.01;101853.84;4790340;30;20092;-66
2022/05/02 06:09:43;;;;;;;28.90;21.73;;;;;;;7.88;78.91;101853.13;4790034;30;20476;-66
2022/05/02 06:12:13;;;;;;;29.35;22.08;;;;;;;8.02;78.71;101853.31;4789861;30;20118;-66
2022/05/02 06:20:15;;;;;;;29.55;21.73;;;;;;;8.30;78.20;101861.63;4789865;30;20115;-66
2022/05/02 06:22:41;;;;;;;27.60;21.05;;;;;;;8.37;78.53;101862.56;4789508;30;20039;-66
2022/05/02 06:25:07;;;;;;;27.55;21.85;;;;;;;8.46;77.85;101863.34;4789893;30;20043;-66
2022/05/02 06:27:33;;;;;;;29.58;20.67;;;;;;;8.55;77.88;101858.72;4789517;30;20519;-66
2022/05/02 06:30:01;;;;;;;29.35;21.15;;;;;;;8.61;77.56;101863.34;4789776;30;20083;-66
2022/05/02 06:32:29;;;;;;;31.85;21.02;;;;;;;8.72;77.23;101860.16;4788724;29;20099;-66
2022/05/02 06:34:55;;;;;;;24.92;19.73;;;;;;;8.79;77.26;101854.88;4789339;30;20035;-66
2022/05/02 06:37:43;;;;;;;28.95;21.70;;;;;;;8.88;77.19;101856.44;4789804;30;20039;-66
2022/05/02 06:40:18;;;;;;;26.00;20.67;;;;;;;8.95;76.35;101860.06;4789395;30;20415;-66
2022/05/02 06:43:00;;;;;;;25.85;19.05;;;;;;;9.01;76.95;101853.03;4789208;30;20063;-66
2022/05/02 06:46:27;;;;;;;27.20;20.70;;;;;;;9.13;76.63;101861.50;4789423;30;20039;-66
2022/05/02 06:48:56;;;;;;;24.13;19.13;;;;;;;9.22;76.26;101858.50;4733573;30;20052;-66
2022/05/02 06:51:30;;;;;;;25.83;19.70;;;;;;;9.34;76.38;101866.91;4733660;30;20072;-66
2022/05/02 06:54:31;;;;;;;24.50;19.95;;;;;;;9.40;75.80;101866.16;4772281;30;20039;-66
2022/05/02 06:57:19;;;;;;;28.05;20.55;;;;;;;9.49;76.04;101866.03;4789497;30;20062;-67
2022/05/02 06:59:57;;;;;;;24.60;18.92;;;;;;;9.55;75.23;101854.44;4789319;30;20031;-70
2022/05/02 07:02:32;;;;;;;27.27;19.67;;;;;;;9.63;75.21;101858.88;4775314;29;20050;-67
2022/05/02 07:05:05;;;;;;;25.10;18.88;;;;;;;9.70;75.11;101860.59;4783558;30;20039;-67
2022/05/02 07:07:42;;;;;;;21.50;17.20;;;;;;;9.79;73.02;101857.78;4789032;30;20169;-67
2022/05/02 07:10:17;;;;;;;25.50;17.65;;;;;;;9.90;72.47;101857.22;4789141;30;20197;-66
2022/05/02 07:12:59;;;;;;;24.40;18.95;;;;;;;9.99;74.26;101850.66;4789011;30;20114;-66
2022/05/02 07:15:43;;;;;;;;;;;;;;;10.08;73.53;101857.59;4789527;30;20062;-67
2022/05/02 07:18:35;;;;;;;22.90;16.80;;;;;;;10.16;72.26;101855.75;4788840;30;19918;-67
2022/05/02 07:21:18;;;;;;;;;;;;;;;10.23;72.73;101854.75;4789470;30;20373;-70
2022/05/02 07:24:21;;;;;;;25.42;16.35;;;;;;;10.32;71.94;101857.34;4788542;30;19922;-71
2022/05/02 07:27:05;;;;;;;22.70;15.80;;;;;;;10.42;71.69;101860.56;4788652;30;20384;-72
2022/05/02 07:29:34;;;;;;;23.02;17.05;;;;;;;10.50;70.65;101851.44;4788685;30;20035;-69
2022/05/02 07:32:01;;;;;;;19.92;14.77;;;;;;;10.59;68.84;101856.47;4788377;30;20043;-73
2022/05/02 07:34:29;;;;;;;17.92;14.27;;;;;;;10.73;69.07;101856.53;4772628;30;20063;-68
2022/05/02 07:36:54;;;;;;;22.67;14.77;;;;;;;10.78;68.93;101849.50;4788583;30;20035;-70
2022/05/02 07:39:22;;;;;;;23.20;13.80;;;;;;;10.87;68.08;101857.41;4788765;30;20088;-71
2022/05/02 07:41:49;;;;;;;23.70;14.82;;;;;;;10.91;67.50;101854.09;4788304;30;20463;-69
2022/05/02 07:44:16;;;;;;;17.70;13.48;;;;;;;10.93;66.45;101851.19;4787798;29;20039;-67
2022/05/02 07:46:44;;;;;;;20.73;13.45;;;;;;;11.04;66.32;101850.63;4788428;30;20047;-67
2022/05/02 07:49:13;;;;;;;19.42;13.93;;;;;;;11.11;66.46;101848.78;4787305;30;20067;-67
2022/05/02 07:51:47;;;;;;;21.33;15.02;;;;;;;11.17;67.41;101853.38;4788529;30;20092;-67
2022/05/02 07:54:18;;;;;;;21.10;13.45;;;;;;;11.26;65.48;101853.19;4788243;30;20059;-68
2022/05/02 07:56:46;;;;;;;21.25;14.70;;;;;;;11.33;65.19;101848.63;4787895;30;20479;-67
2022/05/02 07:59:14;;;;;;;21.33;15.25;;;;;;;11.39;65.50;101853.22;4788382;30;20039;-68
2022/05/02 08:01:40;;;;;;;19.08;13.70;;;;;;;11.44;63.60;101858.84;4779243;29;20055;-67
2022/05/02 08:04:05;;;;;;;19.52;13.63;;;;;;;11.48;61.29;101860.09;4787317;30;20563;-67
2022/05/02 08:07:02;;;;;;;22.75;13.68;;;;;;;11.50;62.81;101858.03;5069646;28;20386;-67
2022/05/02 08:09:57;;;;;;;16.98;12.52;;;;;;;11.60;61.40;101862.22;5070229;28;20048;-66
2022/05/02 08:12:30;;;;;;;18.27;11.90;;;;;;;11.64;59.73;101858.03;5069359;28;20044;-67
2022/05/02 08:15:13;;;;;;;16.17;12.20;;;;;;;11.76;60.23;101858.25;5069581;28;20033;-66
2022/05/02 08:17:54;;;;;;;20.27;13.55;;;;;;;11.79;58.89;101849.69;5048197;28;20033;-65
2022/05/02 08:20:36;;;;;;;17.65;13.32;;;;;;;11.92;60.76;101852.41;5049568;28;20106;-66
2022/05/02 08:29:47;;;;;;;15.88;12.30;;;;;;;12.07;58.69;101852.22;5029657;28;20041;-67
2022/05/02 08:32:22;;;;;;;21.27;11.90;;;;;;;12.13;58.03;101851.38;5036444;28;20499;-66
2022/05/02 08:35:07;;;;;;;16.40;11.95;;;;;;;12.19;56.96;101853.25;5049242;28;20057;-66
2022/05/02 08:37:49;;;;;;;17.42;11.52;;;;;;;12.33;56.66;101853.22;5049415;28;20491;-66
2022/05/02 08:40:20;;;;;;;14.55;11.20;;;;;;;12.40;56.36;101854.88;5049119;28;20036;-66
2022/05/02 08:43:24;;;;;;;17.65;12.15;;;;;;;12.44;57.99;101858.00;5048835;28;20029;-66
2022/05/02 08:46:13;;;;;;;14.85;11.20;;;;;;;12.49;56.83;101849.22;5048939;28;20033;-66
2022/05/02 08:52:34;;;;;;;16.40;11.48;;;;;;;12.57;56.39;101848.97;5048447;28;20115;-65
2022/05/02 08:55:28;;;;;;;20.98;11.02;;;;;;;12.65;55.63;101853.34;5048014;28;20396;-66
2022/05/02 08:58:27;;;;;;;16.30;11.48;;;;;;;12.69;55.00;101843.72;5048664;28;20040;-65
2022/05/02 09:01:29;;;;;;;16.50;10.90;;;;;;;12.70;54.72;101848.94;5046397;28;20103;-66
2022/05/02 09:04:28;;;;;;;15.93;10.30;;;;;;;12.79;56.18;101843.25;5028088;28;20050;-65
2022/05/02 09:07:15;;;;;;;16.23;10.90;;;;;;;12.81;55.68;101839.28;5028712;28;20038;-65
2022/05/02 09:09:57;;;;;;;15.75;11.27;;;;;;;12.91;54.85;101845.09;5027450;28;20033;-65
2022/05/02 09:12:38;;;;;;;16.15;11.10;;;;;;;12.89;54.43;101843.63;5022877;28;20045;-66
2022/05/02 09:15:46;;;;;;;17.35;10.10;;;;;;;12.89;54.03;101839.06;5009314;28;20438;-66
2022/05/02 09:18:31;;;;;;;15.45;9.30;;;;;;;12.97;51.59;101843.41;5012377;28;20038;-65
2022/05/02 09:20:58;;;;;;;12.40;9.23;;;;;;;13.09;51.25;101843.56;5015189;28;20105;-66
2022/05/02 09:23:39;;;;;;;11.48;8.23;;;;;;;13.05;51.32;101842.31;5014849;28;20038;-65
2022/05/02 09:26:23;;;;;;;13.77;9.48;;;;;;;13.12;51.41;101841.22;5015197;28;20041;-69
2022/05/02 09:28:54;;;;;;;15.55;10.68;;;;;;;13.19;52.03;101826.75;5015250;28;20033;-65
2022/05/02 09:31:25;;;;;;;14.85;10.68;;;;;;;13.23;52.26;101842.41;5015160;28;20034;-65
2022/05/02 09:34:14;;;;;;;13.57;10.05;;;;;;;13.30;50.88;101835.06;5014963;28;20038;-65
2022/05/02 09:37:06;;;;;;;12.75;9.98;;;;;;;13.41;51.55;101841.69;5015409;28;20037;-65
2022/05/02 09:39:40;;;;;;;16.35;9.98;;;;;;;13.46;50.12;101835.59;5015034;28;20052;-65
2022/05/02 09:42:39;;;;;;;14.07;10.50;;;;;;;13.48;50.62;101836.19;5015196;28;20064;-65
2022/05/02 09:49:33;;;;;;;14.77;10.50;;;;;;;13.61;51.34;101830.66;5024112;28;20129;-66
2022/05/02 09:51:51;;;;;;;14.35;10.02;;;;;;;13.61;51.42;101819.78;5014934;28;20404;-65
2022/05/02 09:57:32;;;;;;;13.23;10.07;;;;;;;13.77;49.53;101814.88;5014640;28;20045;-66
2022/05/02 10:02:48;;;;;;;13.48;9.63;;;;;;;13.93;48.87;101817.00;5011774;28;20048;-66
2022/05/02 10:05:23;;;;;;;14.23;9.82;;;;;;;13.93;47.88;101818.91;5013000;28;20057;-68
2022/05/02 10:08:04;;;;;;;14.65;9.75;;;;;;;13.94;48.47;101821.41;5014432;28;20113;-65
2022/05/02 10:10:39;;;;;;;15.45;10.23;;;;;;;13.89;47.97;101823.97;5014870;28;20048;-66
2022/05/02 10:13:56;;;;;;;13.65;9.30;;;;;;;13.92;48.87;101804.47;5014102;28;20470;-66
2022/05/02 10:16:36;;;;;;;14.05;9.98;;;;;;;14.00;48.67;101809.59;4978502;28;20038;-65
2022/05/02 10:19:27;;;;;;;13.55;9.48;;;;;;;13.94;47.65;101807.78;4994776;28;20043;-66
2022/05/02 10:22:15;;;;;;;14.38;9.27;;;;;;;14.03;48.71;101810.25;4994678;28;20046;-66
2022/05/02 10:25:01;;;;;;;12.90;8.77;;;;;;;14.21;49.53;101802.09;4994578;28;20030;-66
2022/05/02 10:27:38;;;;;;;13.90;9.05;;;;;;;14.26;47.59;101809.56;4994463;28;20042;-66
2022/05/02 10:30:08;;;;;;;12.00;8.82;;;;;;;14.42;48.74;101808.13;4994222;28;20038;-66
2022/05/02 10:32:45;;;;;;;15.75;9.20;;;;;;;14.48;47.15;101797.16;4993496;28;20127;-66
2022/05/02 10:35:16;;;;;;;13.10;8.55;;;;;;;14.49;45.19;101795.25;5013522;28;20500;-66
2022/05/02 10:37:52;;;;;;;12.17;9.00;;;;;;;14.50;47.17;101799.66;5013312;28;20033;-66
2022/05/02 10:40:28;;;;;;;13.70;9.18;;;;;;;14.57;46.53;101794.13;5029093;28;20112;-66
2022/05/02 10:42:56;;;;;;;11.77;8.77;;;;;;;14.51;45.42;101785.81;5012482;28;20493;-67
2022/05/02 10:45:26;;;;;;;12.18;8.68;;;;;;;14.63;45.91;101783.19;5013645;28;20432;-66
2022/05/02 10:47:53;;;;;;;13.90;8.60;;;;;;;14.70;44.03;101783.94;5013638;28;20104;-66
2022/05/02 10:50:27;;;;;;;13.60;10.13;;;;;;;14.80;44.52;101783.38;5013348;28;20390;-65
2022/05/02 10:53:22;;;;;;;11.18;8.88;;;;;;;14.87;44.55;101780.53;5012876;28;20026;-66
2022/05/02 10:56:03;;;;;;;12.07;8.40;;;;;;;14.93;45.12;101776.91;4993733;28;20030;-67
2022/05/02 10:58:34;;;;;;;10.13;8.13;;;;;;;15.16;47.61;101775.34;4994262;28;20050;-68
2022/05/02 11:01:16;;;;;;;13.43;8.80;;;;;;;15.27;45.73;101774.50;4990601;28;20046;-66
2022/05/02 11:04:04;;;;;;;12.23;8.35;;;;;;;15.35;45.31;101778.78;4994081;28;20040;-66
2022/05/02 11:06:57;;;;;;;14.02;10.27;;;;;;;15.38;44.63;101773.72;4992571;28;20541;-66
2022/05/02 11:09:39;;;;;;;14.10;8.80;;;;;;;15.48;45.06;101766.84;4982258;28;20038;-67
2022/05/02 11:12:10;;;;;;;12.68;9.10;;;;;;;15.52;43.33;101765.28;5019859;28;20041;-67
2022/05/02 11:14:57;;;;;;;13.48;8.65;;;;;;;15.46;43.92;101763.50;5033200;28;20025;-66
2022/05/02 11:17:38;;;;;;;11.10;8.88;;;;;;;15.41;42.71;101764.22;5027202;28;20058;-66
2022/05/02 11:23:24;;;;;;;10.52;8.43;;;;;;;15.47;43.38;101762.44;5012649;28;20049;-66
2022/05/02 11:26:09;;;;;;;12.73;10.45;;;;;;;15.52;44.52;101762.56;5012230;28;20294;-66
2022/05/02 11:28:51;;;;;;;15.10;9.68;;;;;;;15.44;43.53;101743.84;5013172;28;20030;-66
2022/05/02 11:31:36;;;;;;;14.40;11.00;;;;;;;15.74;45.14;101749.19;5013005;28;20042;-66
2022/05/02 11:34:48;;;;;;;14.52;10.20;;;;;;;15.92;43.80;101756.44;5012303;28;20156;-66
2022/05/02 11:37:31;;;;;;;15.05;9.60;;;;;;;15.97;43.64;101748.34;5012912;28;20022;-66
2022/05/02 11:40:05;;;;;;;14.93;8.52;;;;;;;16.04;42.46;101738.16;5012456;28;20044;-66
2022/05/02 11:42:33;;;;;;;17.50;8.77;;;;;;;16.03;42.70;101736.47;5012612;28;20083;-67
2022/05/02 11:45:09;;;;;;;13.82;8.73;;;;;;;15.99;41.83;101743.50;5012677;28;20026;-67
2022/05/02 11:48:00;;;;;;;19.38;8.55;;;;;;;16.12;42.70;101745.97;5012811;28;20161;-66
2022/05/02 11:50:26;;;;;;;13.80;8.82;;;;;;;16.21;42.08;101743.69;5012821;28;20449;-66
2022/05/02 11:52:54;;;;;;;19.33;8.77;;;;;;;16.35;41.76;101737.94;5012359;28;20038;-66
2022/05/02 11:55:28;;;;;;;14.73;8.90;;;;;;;16.45;42.07;101738.16;4993163;28;20061;-66
2022/05/02 11:58:13;;;;;;;13.73;9.43;;;;;;;16.60;43.21;101740.38;4992829;28;20026;-66
2022/05/02 12:00:42;;;;;;;11.60;8.88;;;;;;;16.63;40.53;101746.16;5006180;28;20045;-66
2022/05/02 12:03:21;;;;;;;12.27;9.18;;;;;;;16.52;39.59;101738.03;5010879;28;20109;-66
2022/05/02 12:05:57;;;;;;;13.90;8.20;;;;;;;16.58;40.31;101737.88;5007293;28;20053;-66
2022/05/02 12:08:37;;;;;;;11.80;7.85;;;;;;;16.71;41.94;101731.28;5029821;28;20034;-66
2022/05/02 12:11:20;;;;;;;12.30;8.27;;;;;;;16.84;41.44;101733.72;5031669;28;20035;-66
2022/05/02 12:13:47;;;;;;;12.88;8.52;;;;;;;17.06;40.90;101737.66;5032500;28;20025;-66
2022/05/02 12:16:17;;;;;;;12.65;9.13;;;;;;;17.10;40.09;101736.13;5031943;28;20371;-65
2022/05/02 12:18:48;;;;;;;12.48;8.38;;;;;;;17.06;39.08;101729.47;5032064;28;20384;-66
2022/05/02 12:21:23;;;;;;;11.65;8.70;;;;;;;17.18;39.40;101731.06;5032328;28;20108;-66
2022/05/02 12:23:49;;;;;;;12.00;8.55;;;;;;;17.34;40.78;101728.56;5012284;28;20097;-66